createdAt,value
2023-04-01T00:01:37.796Z,8.59
2023-04-01T00:04:08.220Z,8.54
2023-04-01T00:06:41.897Z,8.51
2023-04-01T00:09:10.660Z,8.51
2023-04-01T00:11:39.549Z,8.50
2023-04-01T00:14:08.269Z,8.51
2023-04-01T00:16:36.534Z,8.55
2023-04-01T00:19:05.083Z,8.48
2023-04-01T00:21:35.232Z,8.47
2023-04-01T00:24:04.036Z,8.52
2023-04-01T00:26:33.460Z,8.44
2023-04-01T00:29:02.619Z,8.41
2023-04-01T00:31:31.310Z,8.34
2023-04-01T00:34:00.049Z,8.38
2023-04-01T00:36:28.896Z,8.36
2023-04-01T00:39:00.003Z,8.33
2023-04-01T00:41:29.645Z,8.34
2023-04-01T00:44:20.261Z,8.23
2023-04-01T00:46:49.859Z,8.21
2023-04-01T00:49:20.989Z,8.21
2023-04-01T00:51:53.190Z,8.14
2023-04-01T00:54:24.725Z,8.19
2023-04-01T00:56:57.438Z,8.10
2023-04-01T00:59:28.649Z,8.10
2023-04-01T01:01:57.130Z,8.00
2023-04-01T01:04:28.800Z,7.96
2023-04-01T01:07:08.374Z,7.93
2023-04-01T01:09:48.666Z,8.00
2023-04-01T01:12:21.609Z,8.02
2023-04-01T01:15:04.047Z,8.03
2023-04-01T01:17:42.784Z,7.99
2023-04-01T01:20:50.678Z,7.93
2023-04-01T01:23:45.694Z,8.02
2023-04-01T01:26:41.586Z,8.07
2023-04-01T01:29:21.137Z,8.10
2023-04-01T01:32:00.724Z,8.10
2023-04-01T01:34:33.849Z,8.02
2023-04-01T01:37:08.036Z,8.04
2023-04-01T01:39:41.927Z,8.06
2023-04-01T01:42:14.001Z,8.10
2023-04-01T01:44:43.973Z,8.11
2023-04-01T01:47:12.946Z,8.17
2023-04-01T01:49:43.308Z,8.17
2023-04-01T01:52:13.444Z,8.16
2023-04-01T01:54:50.028Z,8.19
2023-04-01T01:57:19.808Z,8.04
2023-04-01T01:59:49.805Z,7.92
2023-04-01T02:02:20.091Z,7.93
2023-04-01T02:04:49.156Z,7.92
2023-04-01T02:07:23.505Z,7.87
2023-04-01T02:09:53.009Z,7.87
2023-04-01T02:12:23.081Z,7.93
2023-04-01T02:14:56.176Z,8.02
2023-04-01T02:17:27.438Z,8.02
2023-04-01T02:20:00.365Z,8.10
2023-04-01T02:22:34.851Z,8.14
2023-04-01T02:25:08.077Z,8.17
2023-04-01T02:27:37.721Z,8.19
2023-04-01T02:30:07.239Z,8.11
2023-04-01T02:32:40.801Z,8.13
2023-04-01T02:35:12.887Z,8.06
2023-04-01T02:37:44.865Z,8.06
2023-04-01T02:40:15.747Z,7.93
2023-04-01T02:42:46.843Z,7.96
2023-04-01T02:45:16.925Z,7.86
2023-04-01T02:47:45.783Z,7.78
2023-04-01T02:50:14.490Z,7.72
2023-04-01T02:52:45.730Z,7.66
2023-04-01T02:55:14.014Z,7.72
2023-04-01T02:57:42.939Z,7.75
2023-04-01T03:00:17.765Z,7.71
2023-04-01T03:02:46.484Z,7.79
2023-04-01T03:05:16.541Z,7.76
2023-04-01T03:07:47.547Z,7.83
2023-04-01T03:10:17.134Z,7.78
2023-04-01T03:12:45.815Z,7.83
2023-04-01T03:15:15.873Z,7.78
2023-04-01T03:17:44.893Z,7.81
2023-04-01T03:20:14.114Z,7.82
2023-04-01T03:22:43.146Z,7.82
2023-04-01T03:25:13.031Z,7.83
2023-04-01T03:27:41.451Z,7.76
2023-04-01T03:30:10.796Z,7.65
2023-04-01T03:32:39.462Z,7.59
2023-04-01T03:35:08.511Z,7.47
2023-04-01T03:37:38.129Z,7.38
2023-04-01T03:40:14.699Z,7.30
2023-04-01T03:42:47.261Z,7.28
2023-04-01T03:45:17.405Z,7.31
2023-04-01T03:47:45.717Z,7.23
2023-04-01T03:50:14.766Z,7.28
2023-04-01T03:52:43.147Z,7.28
2023-04-01T03:55:11.819Z,7.27
2023-04-01T03:57:41.707Z,7.24
2023-04-01T04:00:11.084Z,7.24
2023-04-01T04:02:39.534Z,7.23
2023-04-01T04:05:13.812Z,7.24
2023-04-01T04:07:42.325Z,6.97
2023-04-01T04:10:11.411Z,6.82
2023-04-01T04:12:41.765Z,6.94
2023-04-01T04:15:11.061Z,6.94
2023-04-01T04:17:40.895Z,6.96
2023-04-01T04:20:10.717Z,6.93
2023-04-01T04:22:39.445Z,6.97
2023-04-01T04:25:10.854Z,7.01
2023-04-01T04:27:39.390Z,7.03
2023-04-01T04:30:10.468Z,7.15
2023-04-01T04:32:38.871Z,7.14
2023-04-01T04:35:08.247Z,7.17
2023-04-01T04:37:36.719Z,7.13
2023-04-01T04:40:06.247Z,7.20
2023-04-01T04:42:34.880Z,7.14
2023-04-01T04:45:03.256Z,7.10
2023-04-01T04:47:33.723Z,7.13
2023-04-01T04:50:02.581Z,7.08
2023-04-01T04:52:31.314Z,6.77
2023-04-01T04:55:00.532Z,6.82
2023-04-01T04:57:29.233Z,6.77
2023-04-01T04:59:59.397Z,6.75
2023-04-01T05:02:27.979Z,6.71
2023-04-01T05:04:59.161Z,6.69
2023-04-01T05:07:28.348Z,6.72
2023-04-01T05:09:56.688Z,6.85
2023-04-01T05:12:25.066Z,7.00
2023-04-01T05:14:53.424Z,7.00
2023-04-01T05:17:21.740Z,6.97
2023-04-01T05:19:51.262Z,6.96
2023-04-01T05:22:23.541Z,6.99
2023-04-01T05:24:52.099Z,7.07
2023-04-01T05:27:21.906Z,6.90
2023-04-01T05:29:51.556Z,6.99
2023-04-01T05:32:20.602Z,7.03
2023-04-01T05:34:52.231Z,7.10
2023-04-01T05:37:22.323Z,7.11
2023-04-01T05:39:50.748Z,7.36
2023-04-01T05:42:20.462Z,7.40
2023-04-01T05:44:48.798Z,7.63
2023-04-01T05:47:19.699Z,7.62
2023-04-01T05:49:50.607Z,7.69
2023-04-01T05:52:20.306Z,7.78
2023-04-01T05:54:50.349Z,7.85
2023-04-01T05:57:18.676Z,7.90
2023-04-01T05:59:47.362Z,7.97
2023-04-01T06:02:19.600Z,7.87
2023-04-01T06:04:48.602Z,8.33
2023-04-01T06:07:18.986Z,8.83
2023-04-01T06:09:49.586Z,9.03
2023-04-01T06:12:35.724Z,9.47
2023-04-01T06:15:19.680Z,9.54
2023-04-01T06:18:11.117Z,9.57
2023-04-01T06:20:48.269Z,9.82
2023-04-01T06:23:25.823Z,9.84
2023-04-01T06:26:08.570Z,9.99
2023-04-01T06:29:01.833Z,10.02
2023-04-01T06:31:44.527Z,10.03
2023-04-01T06:34:56.800Z,10.19
2023-04-01T06:37:40.156Z,10.26
2023-04-01T06:40:25.156Z,10.34
2023-04-01T06:43:08.549Z,10.40
2023-04-01T06:45:43.927Z,10.44
2023-04-01T06:48:36.201Z,10.57
2023-04-01T06:51:15.126Z,10.67
2023-04-01T06:53:51.447Z,10.68
2023-04-01T06:56:23.361Z,10.71
2023-04-01T06:58:56.327Z,10.78
2023-04-01T07:01:29.045Z,10.90
2023-04-01T07:04:01.427Z,10.97
2023-04-01T07:06:34.569Z,11.05
2023-04-01T07:09:08.308Z,11.19
2023-04-01T07:11:39.737Z,11.22
2023-04-01T07:14:18.728Z,11.25
2023-04-01T07:16:51.399Z,11.42
2023-04-01T07:19:33.741Z,11.57
2023-04-01T07:22:08.382Z,11.55
2023-04-01T07:24:40.094Z,11.74
2023-04-01T07:27:12.311Z,11.69
2023-04-01T07:29:42.363Z,11.91
2023-04-01T07:32:24.311Z,11.99
2023-04-01T07:35:04.436Z,11.97
2023-04-01T07:37:42.467Z,12.05
2023-04-01T07:40:23.174Z,12.10
2023-04-01T07:43:10.506Z,12.24
2023-04-01T07:45:46.539Z,12.42
2023-04-01T07:48:25.665Z,12.41
2023-04-01T07:55:09.305Z,12.67
2023-04-01T07:57:45.752Z,12.35
2023-04-01T08:00:22.990Z,12.48
2023-04-01T08:03:09.331Z,12.62
2023-04-01T08:05:47.086Z,12.67
2023-04-01T08:08:21.855Z,12.41
2023-04-01T08:10:54.418Z,12.41
2023-04-01T08:13:31.664Z,12.63
2023-04-01T08:16:08.273Z,12.45
2023-04-01T08:18:46.632Z,12.77
2023-04-01T08:21:19.727Z,12.65
2023-04-01T08:23:50.623Z,12.73
2023-04-01T08:26:32.084Z,12.49
2023-04-01T08:29:06.689Z,13.18
2023-04-01T08:31:39.942Z,13.32
2023-04-01T08:34:17.509Z,13.08
2023-04-01T08:36:54.991Z,12.72
2023-04-01T08:39:31.860Z,12.67
2023-04-01T08:42:29.923Z,12.75
2023-04-01T08:45:18.407Z,12.69
2023-04-01T08:48:12.445Z,12.63
2023-04-01T08:51:10.349Z,12.57
2023-04-01T08:54:06.838Z,12.62
2023-04-01T08:56:42.552Z,12.80
2023-04-01T08:59:27.928Z,12.84
2023-04-01T09:02:20.542Z,12.77
2023-04-01T09:05:23.726Z,12.84
2023-04-01T09:08:02.751Z,13.27
2023-04-01T09:11:02.573Z,13.35
2023-04-01T09:13:58.169Z,13.28
2023-04-01T09:16:38.626Z,12.76
2023-04-01T09:19:30.852Z,13.11
2023-04-01T09:22:16.536Z,13.08
2023-04-01T09:25:17.109Z,12.79
2023-04-01T09:27:58.205Z,12.89
2023-04-01T09:31:10.546Z,12.99
2023-04-01T09:34:24.182Z,13.68
2023-04-01T09:37:06.178Z,13.40
2023-04-01T09:39:39.202Z,13.15
2023-04-01T09:42:30.094Z,12.80
2023-04-01T09:45:02.492Z,12.96
2023-04-01T09:47:49.253Z,12.83
